• Join FlightAware (Why Join?)
  • Login
  • US Flag 
09:21AM EDT


 

Airport Tracker/Info


-or-


 

Live Flight TrackerFlight Track Log ✈ CTL13 ✈ 18-Apr-2013 ✈ KBKL - KEYE

Flight Track Log - Related Links

Times and Time Zones

All times are in EDT time to prevent confusion due to time zone crossing. See the CTL13 flight status page for this flight to view local times or setup timezone preferences in your user account.

Time Position Orientation Groundspeed Altitude Reporting Facility
EDT Latitude Longitude Course Direction KTS MPH feet Rate Location/Type
06:57PM 41.5392 -81.7594 248° West 180 207 35,400  Level Cleveland Center
07:02PM 41.3948 -81.9836 248° West  Level FlightAware Approximate
07:13PM 41.5091 -81.8457 245° Southwest  Level Estimated
07:20PM 41.4016 -82.1522 245° Southwest  Level Estimated
07:21PM 41.3862 -82.1958 245° Southwest  Level Estimated
07:22PM 41.3708 -82.2395 245° Southwest  Level Estimated
07:23PM 41.3553 -82.2832 245° Southwest  Level Estimated
07:24PM 41.3398 -82.3268 245° Southwest  Level Estimated
07:25PM 41.3243 -82.3704 245° Southwest  Level Estimated
07:26PM 41.3088 -82.4140 245° Southwest  Level Estimated
07:27PM 41.2933 -82.4576 245° Southwest  Level Estimated
07:28PM 41.2778 -82.5011 245° Southwest  Level Estimated
07:29PM 41.2622 -82.5446 245° Southwest  Level Estimated
07:30PM 41.2466 -82.5882 245° Southwest  Level Estimated
07:31PM 41.2310 -82.6316 245° Southwest  Level Estimated
07:32PM 41.2154 -82.6751 244° Southwest  Level Estimated
07:33PM 41.1998 -82.7185 244° Southwest  Level Estimated
07:34PM 41.1842 -82.7620 244° Southwest  Level Estimated
07:34PM 41.0478 -83.3419 244° Southwest 141 162 4,000  Level Indianapolis Center
07:35PM 41.1685 -82.8054 244° Southwest  Level Estimated
07:35PM 41.0292 -83.3872 241° Southwest 140 161 4,000  Level Indianapolis Center
07:36PM 41.1529 -82.8487 244° Southwest  Level Estimated
07:36PM 41.0114 -83.4272 240° Southwest 144 166 4,000  Level Indianapolis Center
07:37PM 41.1372 -82.8921 244° Southwest  Level Estimated
07:37PM 40.9875 -83.4822 240° Southwest 146 168 4,000  Level Indianapolis Center
07:38PM 41.1215 -82.9354 244° Southwest  Level Estimated
07:38PM 40.9683 -83.5286 241° Southwest 147 169 4,000  Level Indianapolis Center
07:39PM 41.1057 -82.9788 244° Southwest  Level Estimated
07:39PM 40.9514 -83.5731 243° Southwest 147 169 4,000  Level Indianapolis Center
07:40PM 40.9308 -83.6206 240° Southwest 143 165 4,000  Level Indianapolis Center
07:41PM 40.9036 -83.6697 234° Southwest 144 166 4,000  Level Indianapolis Center
07:42PM 40.8925 -83.7131 251° West 139 160 4,000  Level Indianapolis Center
07:44PM 40.8683 -83.7708 241° Southwest  Level FlightAware Approximate
07:51PM 40.7452 -84.0766 243° Southwest  Level FlightAware Approximate
07:52PM 40.7282 -84.1207 243° Southwest  Level FlightAware Approximate
07:53PM 40.7113 -84.1647 243° Southwest  Level FlightAware Approximate
07:54PM 40.6944 -84.2088 243° Southwest  Level FlightAware Approximate
07:55PM 40.6774 -84.2528 243° Southwest  Level FlightAware Approximate
07:56PM 40.6604 -84.2968 243° Southwest  Level FlightAware Approximate
07:57PM 40.6434 -84.3407 243° Southwest  Level FlightAware Approximate
07:58PM 40.6260 -84.3844 241° Southwest  Level FlightAware Approximate
07:59PM 40.6080 -84.4276 241° Southwest  Level FlightAware Approximate
08:00PM 40.5900 -84.4708 241° Southwest  Level FlightAware Approximate
08:05PM 40.5001 -84.6683 222° Southwest  Level FlightAware Approximate